Time;durP1;ratioP1;P1;durP2;ratioP2;P2;SDS_P1;SDS_P2;PMS_P1;PMS_P2;Temp;Humidity;BMP_temperature;BMP_pressure;BME280_temperature;BME280_humidity;BME280_pressure;Samples;Min_cycle;Max_cycle;Signal;HPM_P1;HPM_P2
2022/01/05 00:00:54;;;;;;;15.20;3.45;;;;;;;;;;5012837;28;20445;-70
2022/01/05 00:03:19;;;;;;;14.15;3.45;;;;;;;;;;5010381;28;20237;-70
2022/01/05 00:05:44;;;;;;;7.77;3.03;;;;;;;;;;5008764;28;20037;-70
2022/01/05 00:08:12;;;;;;;6.40;2.40;;;;;;;;;;5011488;28;20264;-70
2022/01/05 00:10:37;;;;;;;6.30;1.95;;;;;;;;;;5010025;28;20013;-70
2022/01/05 00:13:02;;;;;;;13.85;2.95;;;;;;;;;;5012571;28;20553;-70
2022/01/05 00:15:27;;;;;;;8.50;2.40;;;;;;;;;;5011894;28;20018;-70
2022/01/05 00:17:53;;;;;;;5.65;2.30;;;;;;;;;;5006127;28;20272;-70
2022/01/05 00:20:19;;;;;;;4.78;2.47;;;;;;;;;;5010514;28;20261;-70
2022/01/05 00:22:45;;;;;;;6.43;2.40;;;;;;;;;;5009754;28;20124;-69
2022/01/05 00:25:10;;;;;;;6.80;2.78;;;;;;;;;;5010339;28;20281;-68
2022/01/05 00:27:35;;;;;;;5.07;2.42;;;;;;;;;;5009083;28;20037;-69
2022/01/05 00:30:00;;;;;;;6.75;2.67;;;;;;;;;;5011104;28;20198;-70
2022/01/05 00:32:25;;;;;;;4.35;2.70;;;;;;;;;;5010627;28;20390;-70
2022/01/05 00:34:52;;;;;;;8.50;3.22;;;;;;;;;;5010277;28;20033;-70
2022/01/05 00:37:17;;;;;;;9.35;2.95;;;;;;;;;;5009802;28;20026;-69
2022/01/05 00:39:42;;;;;;;6.93;3.00;;;;;;;;;;5012101;28;20032;-70
2022/01/05 00:42:07;;;;;;;10.95;2.60;;;;;;;;;;5011029;28;20054;-69
2022/01/05 00:44:33;;;;;;;9.45;3.08;;;;;;;;;;5011648;28;20014;-69
2022/01/05 00:46:58;;;;;;;8.52;3.25;;;;;;;;;;5010462;28;20022;-68
2022/01/05 00:49:23;;;;;;;8.90;3.78;;;;;;;;;;5011102;28;20097;-69
2022/01/05 00:51:48;;;;;;;9.05;3.30;;;;;;;;;;5011946;28;20486;-69
2022/01/05 00:54:14;;;;;;;11.20;3.03;;;;;;;;;;5011325;28;20018;-69
2022/01/05 00:56:39;;;;;;;12.50;2.90;;;;;;;;;;5011269;28;20490;-69
2022/01/05 00:59:04;;;;;;;10.03;2.80;;;;;;;;;;5011004;28;20026;-68
2022/01/05 01:01:29;;;;;;;9.95;4.03;;;;;;;;;;5011504;28;20268;-69
2022/01/05 01:03:54;;;;;;;9.68;3.15;;;;;;;;;;5011299;28;20026;-69
2022/01/05 01:06:20;;;;;;;15.48;3.53;;;;;;;;;;5010857;28;20068;-69
2022/01/05 01:08:45;;;;;;;11.02;3.45;;;;;;;;;;5011368;28;20049;-70
2022/01/05 01:11:10;;;;;;;11.88;2.75;;;;;;;;;;5011427;28;20025;-70
2022/01/05 01:13:35;;;;;;;11.57;3.42;;;;;;;;;;5011283;28;20096;-70
2022/01/05 01:16:01;;;;;;;19.15;5.03;;;;;;;;;;5010806;28;20022;-70
2022/01/05 01:18:26;;;;;;;12.13;4.15;;;;;;;;;;5011028;28;20022;-70
2022/01/05 01:20:51;;;;;;;16.52;4.38;;;;;;;;;;5011677;28;20045;-70
2022/01/05 01:23:23;;;;;;;22.33;6.03;;;;;;;;;;5011685;28;20037;-69
2022/01/05 01:25:50;;;;;;;10.40;4.30;;;;;;;;;;5010985;28;20068;-69
2022/01/05 01:28:15;;;;;;;10.50;3.95;;;;;;;;;;5010995;28;20502;-69
2022/01/05 01:30:40;;;;;;;15.35;3.78;;;;;;;;;;5011161;28;20026;-69
2022/01/05 01:33:06;;;;;;;15.60;3.72;;;;;;;;;;5009747;28;20602;-69
2022/01/05 01:35:31;;;;;;;7.60;3.25;;;;;;;;;;5011095;28;20022;-69
2022/01/05 01:37:56;;;;;;;8.20;3.55;;;;;;;;;;5011028;28;20043;-69
2022/01/05 01:40:21;;;;;;;16.38;4.63;;;;;;;;;;5011078;28;20033;-69
2022/01/05 01:42:47;;;;;;;9.32;4.03;;;;;;;;;;5010834;28;20022;-69
2022/01/05 01:45:12;;;;;;;11.73;3.97;;;;;;;;;;5010816;28;20026;-69
2022/01/05 01:47:37;;;;;;;13.80;4.20;;;;;;;;;;5010444;28;20022;-69
2022/01/05 01:50:05;;;;;;;11.25;3.97;;;;;;;;;;5010870;28;20025;-69
2022/01/05 01:52:30;;;;;;;12.90;4.75;;;;;;;;;;5010743;28;20036;-69
2022/01/05 01:54:55;;;;;;;17.08;4.88;;;;;;;;;;5010582;28;20483;-69
2022/01/05 01:57:20;;;;;;;18.90;5.65;;;;;;;;;;5010257;28;20117;-69
2022/01/05 01:59:46;;;;;;;19.27;4.30;;;;;;;;;;5010450;28;20029;-69
2022/01/05 02:02:11;;;;;;;17.67;4.45;;;;;;;;;;5010935;28;20125;-69
2022/01/05 02:04:39;;;;;;;15.82;5.68;;;;;;;;;;5008809;28;20072;-69
2022/01/05 02:07:04;;;;;;;16.95;5.57;;;;;;;;;;5010726;28;20035;-69
2022/01/05 02:09:29;;;;;;;16.33;6.85;;;;;;;;;;5009989;28;20383;-69
2022/01/05 02:11:54;;;;;;;19.73;5.93;;;;;;;;;;5009635;28;20459;-69
2022/01/05 02:14:19;;;;;;;15.43;6.05;;;;;;;;;;5010793;28;20041;-69
2022/01/05 02:16:45;;;;;;;21.90;9.77;;;;;;;;;;5010435;28;20025;-69
2022/01/05 02:19:11;;;;;;;30.58;8.30;;;;;;;;;;5000036;28;20010;-69
2022/01/05 02:21:37;;;;;;;22.30;7.32;;;;;;;;;;5008108;28;20022;-69
2022/01/05 02:24:03;;;;;;;21.08;6.88;;;;;;;;;;4999474;28;20359;-69
2022/01/05 02:26:28;;;;;;;20.00;7.28;;;;;;;;;;5015864;28;20390;-69
2022/01/05 02:28:54;;;;;;;18.83;6.78;;;;;;;;;;5012185;28;20014;-69
2022/01/05 02:31:19;;;;;;;22.83;7.00;;;;;;;;;;5014497;28;20018;-70
2022/01/05 02:33:44;;;;;;;23.38;9.48;;;;;;;;;;5013492;28;20036;-69
2022/01/05 02:36:12;;;;;;;19.63;6.82;;;;;;;;;;5014073;28;20036;-69
2022/01/05 02:38:38;;;;;;;25.70;8.05;;;;;;;;;;5013696;28;20029;-69
2022/01/05 02:41:10;;;;;;;20.70;6.65;;;;;;;;;;5014427;28;20030;-69
2022/01/05 02:43:36;;;;;;;24.67;10.30;;;;;;;;;;5013897;28;20042;-69
2022/01/05 02:46:01;;;;;;;31.88;8.52;;;;;;;;;;5014357;28;20018;-69
2022/01/05 02:48:26;;;;;;;25.65;10.05;;;;;;;;;;5013821;28;20076;-69
2022/01/05 02:50:54;;;;;;;27.75;9.95;;;;;;;;;;5012646;28;20022;-69
2022/01/05 02:53:19;;;;;;;23.08;8.00;;;;;;;;;;5013287;28;20025;-69
2022/01/05 02:55:45;;;;;;;27.38;8.88;;;;;;;;;;5013134;28;20114;-69
2022/01/05 02:58:10;;;;;;;22.60;8.32;;;;;;;;;;5013599;28;20056;-69
2022/01/05 03:00:35;;;;;;;28.55;10.63;;;;;;;;;;5013494;28;20038;-69
2022/01/05 03:03:00;;;;;;;28.48;12.63;;;;;;;;;;5013911;28;20494;-69
2022/01/05 03:05:25;;;;;;;25.27;9.73;;;;;;;;;;5013760;28;20053;-69
2022/01/05 03:07:51;;;;;;;26.45;10.13;;;;;;;;;;5027373;23;20045;-66
2022/01/05 03:10:16;;;;;;;29.60;7.32;;;;;;;;;;5014937;28;20018;-66
2022/01/05 03:12:42;;;;;;;24.35;7.90;;;;;;;;;;5022893;28;20025;-66
2022/01/05 03:15:07;;;;;;;28.30;8.45;;;;;;;;;;5021682;28;20021;-66
2022/01/05 03:17:33;;;;;;;26.85;7.00;;;;;;;;;;5021159;28;20018;-66
2022/01/05 03:19:58;;;;;;;20.40;6.82;;;;;;;;;;5013249;28;20030;-66
2022/01/05 03:22:23;;;;;;;25.13;6.03;;;;;;;;;;5013840;28;20025;-66
2022/01/05 03:24:49;;;;;;;19.45;5.20;;;;;;;;;;5013361;28;20025;-67
2022/01/05 03:27:14;;;;;;;31.25;5.78;;;;;;;;;;5013519;28;20371;-65
2022/01/05 03:29:39;;;;;;;22.10;5.82;;;;;;;;;;5014865;28;20021;-67
2022/01/05 03:32:04;;;;;;;23.53;6.43;;;;;;;;;;5021813;28;20080;-66
2022/01/05 03:34:31;;;;;;;24.80;5.75;;;;;;;;;;5012874;28;20352;-66
2022/01/05 03:36:56;;;;;;;14.60;3.58;;;;;;;;;;5013871;28;20014;-66
2022/01/05 03:39:22;;;;;;;19.10;4.50;;;;;;;;;;5023917;28;20489;-67
2022/01/05 03:41:47;;;;;;;18.75;4.15;;;;;;;;;;5013837;28;20064;-67
2022/01/05 03:44:12;;;;;;;14.68;4.55;;;;;;;;;;5022971;28;20025;-66
2022/01/05 03:46:37;;;;;;;34.03;4.90;;;;;;;;;;5024564;28;20287;-65
2022/01/05 03:49:03;;;;;;;19.90;4.72;;;;;;;;;;5015985;28;20649;-66
2022/01/05 03:51:28;;;;;;;18.63;4.13;;;;;;;;;;5019205;28;20026;-66
2022/01/05 03:53:53;;;;;;;21.60;4.68;;;;;;;;;;5025796;28;20421;-66
2022/01/05 03:56:19;;;;;;;14.32;3.42;;;;;;;;;;5024216;28;20100;-66
2022/01/05 03:58:44;;;;;;;16.05;4.25;;;;;;;;;;5013129;28;20045;-66
2022/01/05 04:01:09;;;;;;;17.90;3.83;;;;;;;;;;5016792;28;20396;-66
2022/01/05 04:03:34;;;;;;;19.00;3.60;;;;;;;;;;5023787;28;20104;-66
2022/01/05 04:05:59;;;;;;;25.60;3.75;;;;;;;;;;5012159;28;20045;-66
2022/01/05 04:08:25;;;;;;;13.13;3.58;;;;;;;;;;5011979;28;20033;-66
2022/01/05 04:10:50;;;;;;;8.55;2.70;;;;;;;;;;5018997;28;20113;-66
2022/01/05 04:13:16;;;;;;;21.67;4.32;;;;;;;;;;5020956;28;20436;-66
2022/01/05 04:15:41;;;;;;;19.90;3.90;;;;;;;;;;5011876;28;20018;-66
2022/01/05 04:18:06;;;;;;;14.38;4.28;;;;;;;;;;5015300;28;20024;-66
2022/01/05 04:20:32;;;;;;;15.98;3.80;;;;;;;;;;5012763;28;20044;-66
2022/01/05 04:22:57;;;;;;;22.73;4.43;;;;;;;;;;5015708;28;20073;-66
2022/01/05 04:25:22;;;;;;;19.30;4.90;;;;;;;;;;5022580;28;20041;-66
2022/01/05 04:27:47;;;;;;;16.80;3.08;;;;;;;;;;5012087;28;20325;-66
2022/01/05 04:30:13;;;;;;;15.40;4.07;;;;;;;;;;5016768;28;20017;-66
2022/01/05 04:32:38;;;;;;;23.85;3.25;;;;;;;;;;5023599;28;20371;-66
2022/01/05 04:35:04;;;;;;;23.35;5.22;;;;;;;;;;5016809;28;20121;-66
2022/01/05 04:37:31;;;;;;;17.65;4.47;;;;;;;;;;5012321;28;20026;-66
2022/01/05 04:39:57;;;;;;;18.88;4.75;;;;;;;;;;5026522;28;20085;-66
2022/01/05 04:42:22;;;;;;;21.92;4.75;;;;;;;;;;5018644;28;20037;-66
2022/01/05 04:44:47;;;;;;;27.17;5.70;;;;;;;;;;5019701;28;20638;-66
2022/01/05 04:47:12;;;;;;;32.60;4.60;;;;;;;;;;5012400;28;20264;-66
2022/01/05 04:49:38;;;;;;;23.52;6.32;;;;;;;;;;5012228;28;20556;-66
2022/01/05 04:52:03;;;;;;;27.70;5.72;;;;;;;;;;5012808;28;20009;-66
2022/01/05 04:54:29;;;;;;;20.00;5.90;;;;;;;;;;5023204;28;20402;-66
2022/01/05 04:56:54;;;;;;;21.02;4.15;;;;;;;;;;5013655;28;20036;-66
2022/01/05 04:59:19;;;;;;;27.38;4.95;;;;;;;;;;5015796;28;20029;-66
2022/01/05 05:01:44;;;;;;;25.30;5.00;;;;;;;;;;5012613;28;20041;-66
2022/01/05 05:04:09;;;;;;;19.80;5.22;;;;;;;;;;5015808;28;20037;-65
2022/01/05 05:06:35;;;;;;;22.63;5.53;;;;;;;;;;5014460;28;20029;-66
2022/01/05 05:09:00;;;;;;;31.38;4.35;;;;;;;;;;5009881;28;20037;-66
2022/01/05 05:11:25;;;;;;;29.27;5.55;;;;;;;;;;5011320;28;20014;-66
2022/01/05 05:13:50;;;;;;;21.40;5.15;;;;;;;;;;5023482;28;20503;-66
2022/01/05 05:16:15;;;;;;;17.55;4.97;;;;;;;;;;5020824;28;20036;-67
2022/01/05 05:18:41;;;;;;;27.15;5.20;;;;;;;;;;5017990;28;20025;-67
2022/01/05 05:21:06;;;;;;;19.77;4.70;;;;;;;;;;5015166;28;20540;-66
2022/01/05 05:23:31;;;;;;;17.92;4.13;;;;;;;;;;5028357;28;20057;-66
2022/01/05 05:25:56;;;;;;;20.90;4.97;;;;;;;;;;5022405;28;20022;-66
2022/01/05 05:28:22;;;;;;;21.55;6.53;;;;;;;;;;5016452;28;20109;-67
2022/01/05 05:30:47;;;;;;;20.35;4.05;;;;;;;;;;5011363;28;20021;-66
2022/01/05 05:33:12;;;;;;;29.42;6.35;;;;;;;;;;5012264;28;20490;-66
2022/01/05 05:35:39;;;;;;;10.48;3.83;;;;;;;;;;5025458;28;20028;-66
2022/01/05 05:38:05;;;;;;;16.08;5.50;;;;;;;;;;5019316;28;20634;-66
2022/01/05 05:40:30;;;;;;;10.88;3.58;;;;;;;;;;5025526;28;20049;-66
2022/01/05 05:42:55;;;;;;;32.80;5.45;;;;;;;;;;5014931;28;20053;-65
2022/01/05 05:45:20;;;;;;;26.65;4.93;;;;;;;;;;5023409;28;20021;-66
2022/01/05 05:47:45;;;;;;;17.27;4.47;;;;;;;;;;5013425;28;20032;-65
2022/01/05 05:50:11;;;;;;;15.18;2.90;;;;;;;;;;5018706;28;20009;-67
2022/01/05 05:52:36;;;;;;;16.50;2.90;;;;;;;;;;5009814;28;20030;-66
2022/01/05 05:55:02;;;;;;;16.38;4.40;;;;;;;;;;5016478;28;20032;-66
2022/01/05 05:57:27;;;;;;;14.02;3.85;;;;;;;;;;5013343;28;20026;-66
2022/01/05 05:59:52;;;;;;;2.85;2.03;;;;;;;;;;5014794;28;20382;-65
2022/01/05 06:02:17;;;;;;;17.65;3.25;;;;;;;;;;5009378;28;20128;-66
2022/01/05 06:04:42;;;;;;;5.28;1.83;;;;;;;;;;5019711;28;20010;-66
2022/01/05 06:07:08;;;;;;;24.03;8.27;;;;;;;;;;5009576;28;20394;-66
2022/01/05 06:09:33;;;;;;;26.27;6.53;;;;;;;;;;5009217;28;20300;-66
2022/01/05 06:11:58;;;;;;;45.57;13.57;;;;;;;;;;5016787;28;20021;-66
2022/01/05 06:14:23;;;;;;;51.80;14.80;;;;;;;;;;5013368;28;20269;-66
2022/01/05 06:16:48;;;;;;;29.13;9.20;;;;;;;;;;5016439;28;20026;-66
2022/01/05 06:19:14;;;;;;;30.98;4.93;;;;;;;;;;5011999;28;21814;-66
2022/01/05 06:21:39;;;;;;;17.42;3.95;;;;;;;;;;5046993;28;20029;-66
2022/01/05 06:24:04;;;;;;;14.18;2.75;;;;;;;;;;5023934;28;20033;-66
2022/01/05 06:26:29;;;;;;;22.08;3.63;;;;;;;;;;5012464;28;20068;-66
2022/01/05 06:28:54;;;;;;;19.45;3.92;;;;;;;;;;5009392;28;20025;-66
2022/01/05 06:31:20;;;;;;;15.95;3.70;;;;;;;;;;5009202;28;20046;-66
2022/01/05 06:33:45;;;;;;;15.50;4.63;;;;;;;;;;5016803;28;20026;-66
2022/01/05 06:36:10;;;;;;;22.65;3.60;;;;;;;;;;5011888;28;20425;-66
2022/01/05 06:38:35;;;;;;;16.67;3.25;;;;;;;;;;5009169;28;20505;-66
2022/01/05 06:41:00;;;;;;;10.20;2.95;;;;;;;;;;5012801;28;20042;-66
2022/01/05 06:43:25;;;;;;;31.73;4.97;;;;;;;;;;5007775;28;20109;-66
2022/01/05 06:45:51;;;;;;;20.40;4.18;;;;;;;;;;5007646;28;20022;-66
2022/01/05 06:48:16;;;;;;;33.75;7.93;;;;;;;;;;5016279;28;20548;-66
2022/01/05 06:50:41;;;;;;;16.52;3.50;;;;;;;;;;5009525;28;20026;-66
2022/01/05 06:53:07;;;;;;;21.45;4.20;;;;;;;;;;5009860;28;20025;-66
2022/01/05 06:55:32;;;;;;;16.35;3.13;;;;;;;;;;5009841;28;20052;-66
2022/01/05 06:57:57;;;;;;;16.50;2.35;;;;;;;;;;5009026;28;20145;-66
2022/01/05 07:00:24;;;;;;;7.35;1.73;;;;;;;;;;5010221;28;20110;-66
2022/01/05 07:02:49;;;;;;;11.82;3.38;;;;;;;;;;5009497;28;20029;-65
2022/01/05 07:05:14;;;;;;;9.48;2.95;;;;;;;;;;5041632;28;20474;-66
2022/01/05 07:07:39;;;;;;;18.58;2.65;;;;;;;;;;5009060;28;20030;-66
2022/01/05 07:10:05;;;;;;;9.40;2.00;;;;;;;;;;5008359;28;20018;-66
2022/01/05 07:12:31;;;;;;;18.52;3.17;;;;;;;;;;5008637;28;20036;-66
2022/01/05 07:14:56;;;;;;;32.28;5.18;;;;;;;;;;5010520;28;20028;-66
2022/01/05 07:17:22;;;;;;;24.92;2.78;;;;;;;;;;5011569;28;20025;-65
2022/01/05 07:19:47;;;;;;;8.30;2.90;;;;;;;;;;5012121;28;20040;-66
2022/01/05 07:22:12;;;;;;;15.17;2.83;;;;;;;;;;5012163;28;20033;-65
2022/01/05 07:24:37;;;;;;;17.73;2.28;;;;;;;;;;5011984;28;20372;-66
2022/01/05 07:27:02;;;;;;;15.98;2.25;;;;;;;;;;5011656;28;20380;-65
2022/01/05 07:29:28;;;;;;;10.15;2.95;;;;;;;;;;5011873;28;20100;-66
2022/01/05 07:31:53;;;;;;;18.55;3.35;;;;;;;;;;5012172;28;20025;-65
2022/01/05 07:34:18;;;;;;;8.15;2.70;;;;;;;;;;5012380;28;20101;-66
2022/01/05 07:36:43;;;;;;;12.50;2.67;;;;;;;;;;5011788;28;20030;-65
2022/01/05 07:39:09;;;;;;;24.20;3.72;;;;;;;;;;5011789;28;20128;-66
2022/01/05 07:41:35;;;;;;;24.45;3.80;;;;;;;;;;5011814;28;20117;-66
2022/01/05 07:44:00;;;;;;;13.95;3.60;;;;;;;;;;5013887;28;20382;-66
2022/01/05 07:46:26;;;;;;;19.48;3.53;;;;;;;;;;5015655;28;20018;-66
2022/01/05 07:48:51;;;;;;;18.40;3.88;;;;;;;;;;5015934;28;20024;-66
2022/01/05 07:51:17;;;;;;;22.35;4.05;;;;;;;;;;5017105;28;20517;-66
2022/01/05 07:53:42;;;;;;;19.55;3.70;;;;;;;;;;5012625;28;20018;-66
2022/01/05 07:56:08;;;;;;;16.98;3.38;;;;;;;;;;5012441;28;20391;-66
2022/01/05 07:58:34;;;;;;;27.55;4.15;;;;;;;;;;5011765;28;20109;-66
2022/01/05 08:00:59;;;;;;;17.63;4.15;;;;;;;;;;5012792;28;20437;-66
2022/01/05 08:03:25;;;;;;;24.75;5.32;;;;;;;;;;5011670;28;20036;-65
2022/01/05 08:05:50;;;;;;;28.67;5.53;;;;;;;;;;5011814;28;20026;-66
2022/01/05 08:08:16;;;;;;;44.65;4.97;;;;;;;;;;4974252;28;1095013;-66
2022/01/05 08:10:41;;;;;;;28.77;5.25;;;;;;;;;;5012501;28;20028;-66
2022/01/05 08:13:07;;;;;;;28.48;4.35;;;;;;;;;;5030632;28;20104;-66
2022/01/05 08:15:32;;;;;;;12.27;4.35;;;;;;;;;;5016263;28;20049;-66
2022/01/05 08:17:57;;;;;;;17.20;4.15;;;;;;;;;;5029738;28;20359;-66
2022/01/05 08:20:22;;;;;;;9.90;2.80;;;;;;;;;;5017995;28;20049;-67
2022/01/05 08:22:47;;;;;;;21.05;4.55;;;;;;;;;;5012953;28;20423;-67
2022/01/05 08:25:15;;;;;;;32.42;6.13;;;;;;;;;;5011839;28;20463;-67
2022/01/05 08:27:46;;;;;;;39.78;4.97;;;;;;;;;;5014447;28;20021;-67
2022/01/05 08:30:22;;;;;;;24.52;4.53;;;;;;;;;;5012869;28;20067;-67
2022/01/05 08:32:47;;;;;;;28.00;4.22;;;;;;;;;;5011278;28;20057;-67
2022/01/05 08:35:14;;;;;;;21.83;4.97;;;;;;;;;;5011609;28;20446;-66
2022/01/05 08:37:43;;;;;;;32.53;6.20;;;;;;;;;;5012761;28;20145;-67
2022/01/05 08:40:08;;;;;;;25.00;5.68;;;;;;;;;;5012772;28;20030;-67
2022/01/05 08:42:33;;;;;;;25.17;5.55;;;;;;;;;;5010242;28;20022;-67
2022/01/05 08:44:59;;;;;;;8.25;2.47;;;;;;;;;;5010005;28;20023;-66
2022/01/05 08:47:24;;;;;;;20.83;3.95;;;;;;;;;;5009910;28;20041;-67
2022/01/05 08:49:49;;;;;;;30.63;5.38;;;;;;;;;;5010466;28;20521;-66
2022/01/05 08:52:14;;;;;;;22.75;4.13;;;;;;;;;;5011002;28;20101;-67
2022/01/05 08:54:40;;;;;;;23.52;4.70;;;;;;;;;;5012718;28;20029;-67
2022/01/05 08:57:05;;;;;;;22.58;4.47;;;;;;;;;;5012991;28;20641;-67
2022/01/05 08:59:30;;;;;;;17.52;4.93;;;;;;;;;;5011524;28;20136;-67
2022/01/05 09:01:55;;;;;;;18.45;4.80;;;;;;;;;;5021904;28;20014;-67
2022/01/05 09:04:21;;;;;;;22.38;4.72;;;;;;;;;;5012258;28;20022;-67
2022/01/05 09:06:46;;;;;;;12.30;3.13;;;;;;;;;;5018153;28;20029;-65
2022/01/05 09:09:11;;;;;;;8.70;2.90;;;;;;;;;;5021020;28;20029;-66
2022/01/05 09:11:37;;;;;;;26.58;5.20;;;;;;;;;;5012359;28;20051;-66
2022/01/05 09:14:02;;;;;;;19.35;4.50;;;;;;;;;;5028039;28;20109;-65
2022/01/05 09:16:28;;;;;;;25.98;5.55;;;;;;;;;;5012184;28;20104;-66
2022/01/05 09:18:53;;;;;;;13.60;4.63;;;;;;;;;;5011432;28;20022;-66
2022/01/05 09:21:18;;;;;;;22.38;3.97;;;;;;;;;;5012111;28;20033;-66
2022/01/05 09:23:44;;;;;;;26.45;4.57;;;;;;;;;;5011132;28;20084;-66
2022/01/05 09:26:09;;;;;;;6.75;1.75;;;;;;;;;;5012529;28;20024;-66
2022/01/05 09:28:40;;;;;;;26.70;4.78;;;;;;;;;;5011185;28;20075;-66
2022/01/05 09:31:05;;;;;;;27.33;5.55;;;;;;;;;;5018797;28;20041;-66
2022/01/05 09:33:31;;;;;;;20.05;3.42;;;;;;;;;;5011129;28;20025;-66
2022/01/05 09:36:04;;;;;;;22.30;2.83;;;;;;;;;;5010761;28;20080;-66
2022/01/05 09:41:56;;;;;;;10.35;3.28;;;;;;;;;;5010781;28;20037;-66
2022/01/05 09:44:06;;;;;;;17.27;4.15;;;;;;;;;;5020839;28;20032;-66
2022/01/05 09:46:37;;;;;;;21.92;3.88;;;;;;;;;;5011041;28;20026;-66
2022/01/05 09:49:09;;;;;;;10.30;3.10;;;;;;;;;;5027226;28;20032;-66
2022/01/05 09:51:36;;;;;;;27.88;6.03;;;;;;;;;;5011986;28;20449;-65
2022/01/05 09:54:02;;;;;;;14.65;3.33;;;;;;;;;;5042768;28;20088;-66
2022/01/05 09:56:30;;;;;;;22.52;4.25;;;;;;;;;;5021656;28;20474;-66
2022/01/05 09:58:57;;;;;;;13.52;3.33;;;;;;;;;;5030320;28;20105;-66
2022/01/05 10:01:24;;;;;;;18.73;6.00;;;;;;;;;;5025742;28;20028;-66
2022/01/05 10:03:49;;;;;;;18.75;3.20;;;;;;;;;;5018401;28;20026;-66
2022/01/05 10:06:14;;;;;;;15.18;3.58;;;;;;;;;;5015560;28;20155;-66
2022/01/05 10:08:39;;;;;;;26.30;6.13;;;;;;;;;;5010267;28;20056;-66
2022/01/05 10:11:07;;;;;;;22.88;4.82;;;;;;;;;;5017377;28;20041;-66
2022/01/05 10:13:32;;;;;;;9.48;2.65;;;;;;;;;;5019630;28;20107;-66
2022/01/05 10:15:58;;;;;;;1.83;1.55;;;;;;;;;;5020408;28;20617;-66
2022/01/05 10:18:23;;;;;;;26.50;4.25;;;;;;;;;;5020802;28;20072;-66
2022/01/05 10:21:02;;;;;;;14.00;3.00;;;;;;;;;;5016255;28;20033;-66
2022/01/05 10:23:31;;;;;;;18.90;4.72;;;;;;;;;;5008260;28;20021;-66
2022/01/05 10:26:16;;;;;;;30.15;6.00;;;;;;;;;;5014436;28;20075;-66
2022/01/05 10:28:42;;;;;;;24.75;5.93;;;;;;;;;;5009532;28;20414;-65
2022/01/05 10:31:12;;;;;;;34.10;6.70;;;;;;;;;;5010331;28;20037;-66
2022/01/05 10:33:37;;;;;;;26.52;5.85;;;;;;;;;;5022792;28;20025;-66
2022/01/05 10:36:02;;;;;;;25.25;5.88;;;;;;;;;;5028796;28;20683;-66
2022/01/05 10:38:28;;;;;;;29.52;6.72;;;;;;;;;;5021055;28;20028;-66
2022/01/05 10:40:54;;;;;;;19.23;5.75;;;;;;;;;;5016129;28;20645;-66
2022/01/05 10:43:19;;;;;;;22.33;5.22;;;;;;;;;;5011542;28;20026;-66
2022/01/05 10:45:46;;;;;;;18.33;4.85;;;;;;;;;;5010740;28;20022;-66
2022/01/05 10:48:12;;;;;;;21.13;5.82;;;;;;;;;;5026226;28;20022;-65
2022/01/05 10:50:38;;;;;;;30.25;4.82;;;;;;;;;;5031530;28;20022;-66
2022/01/05 10:53:04;;;;;;;18.38;4.53;;;;;;;;;;5030803;28;20033;-66
2022/01/05 10:55:30;;;;;;;20.02;5.55;;;;;;;;;;5013700;28;20026;-66
2022/01/05 10:58:05;;;;;;;26.67;4.88;;;;;;;;;;5028083;28;20104;-66
2022/01/05 11:00:39;;;;;;;14.90;4.90;;;;;;;;;;5033384;28;20029;-66
2022/01/05 11:03:23;;;;;;;23.83;5.32;;;;;;;;;;5019379;28;20025;-66
2022/01/05 11:06:06;;;;;;;21.02;4.63;;;;;;;;;;5013665;28;20018;-66
2022/01/05 11:08:33;;;;;;;25.70;4.82;;;;;;;;;;5020095;28;20026;-66
2022/01/05 11:10:58;;;;;;;23.15;4.28;;;;;;;;;;5021425;28;20022;-65
2022/01/05 11:13:25;;;;;;;22.58;5.55;;;;;;;;;;5016548;28;20021;-66
2022/01/05 11:15:55;;;;;;;18.02;5.10;;;;;;;;;;5028390;28;20108;-66
2022/01/05 11:18:21;;;;;;;24.08;4.75;;;;;;;;;;5013608;28;20505;-66
2022/01/05 11:20:51;;;;;;;21.83;6.10;;;;;;;;;;5013840;28;20030;-66
2022/01/05 11:23:17;;;;;;;24.08;6.25;;;;;;;;;;5044310;28;20100;-65
2022/01/05 11:25:44;;;;;;;22.95;5.88;;;;;;;;;;5021942;28;20541;-66
2022/01/05 11:28:09;;;;;;;27.92;6.93;;;;;;;;;;5031422;28;20025;-66
2022/01/05 11:30:35;;;;;;;27.45;7.43;;;;;;;;;;5013661;28;20030;-65
2022/01/05 11:33:00;;;;;;;33.58;9.30;;;;;;;;;;5029549;28;20028;-66
2022/01/05 11:35:26;;;;;;;18.15;4.32;;;;;;;;;;5028508;28;20029;-66
2022/01/05 11:37:51;;;;;;;26.85;5.40;;;;;;;;;;5026094;28;20025;-65
2022/01/05 11:40:17;;;;;;;25.63;6.82;;;;;;;;;;5013508;28;20021;-66
2022/01/05 11:42:45;;;;;;;40.42;6.53;;;;;;;;;;5028107;28;20157;-66
2022/01/05 11:45:11;;;;;;;28.52;8.13;;;;;;;;;;5027431;28;20366;-66
2022/01/05 11:47:38;;;;;;;15.27;5.32;;;;;;;;;;5015918;28;20045;-69
2022/01/05 11:50:22;;;;;;;24.23;7.72;;;;;;;;;;5026558;28;20474;-66
2022/01/05 11:52:58;;;;;;;29.15;6.93;;;;;;;;;;5012111;28;20088;-66
2022/01/05 11:55:23;;;;;;;17.75;5.43;;;;;;;;;;5045203;28;20050;-66
2022/01/05 11:58:12;;;;;;;24.52;6.15;;;;;;;;;;5044307;28;20127;-66
2022/01/05 12:00:37;;;;;;;29.73;7.95;;;;;;;;;;5030829;28;20556;-66
2022/01/05 12:03:02;;;;;;;21.17;5.53;;;;;;;;;;5020069;28;20076;-66
2022/01/05 12:05:27;;;;;;;23.95;7.95;;;;;;;;;;5027128;28;20104;-66
2022/01/05 12:07:53;;;;;;;22.20;6.05;;;;;;;;;;5026145;28;20382;-66
2022/01/05 12:10:22;;;;;;;24.48;7.35;;;;;;;;;;5030528;28;20026;-66
2022/01/05 12:13:04;;;;;;;16.27;5.15;;;;;;;;;;5012800;28;20521;-66
2022/01/05 12:15:44;;;;;;;18.67;6.40;;;;;;;;;;5013635;28;20180;-66
2022/01/05 12:18:20;;;;;;;8.77;3.38;;;;;;;;;;5028417;28;20470;-65
2022/01/05 12:20:45;;;;;;;25.50;5.18;;;;;;;;;;5000603;28;20033;-66
2022/01/05 12:23:15;;;;;;;18.90;5.85;;;;;;;;;;5014566;28;20493;-68
2022/01/05 12:26:00;;;;;;;26.67;7.57;;;;;;;;;;4993898;28;20020;-67
2022/01/05 12:28:30;;;;;;;16.83;6.28;;;;;;;;;;5011954;28;20067;-66
2022/01/05 12:30:55;;;;;;;25.08;6.00;;;;;;;;;;5004559;28;20025;-66
2022/01/05 12:33:20;;;;;;;22.52;6.22;;;;;;;;;;5015653;28;20036;-66
2022/01/05 12:35:47;;;;;;;18.70;5.55;;;;;;;;;;5016236;28;20025;-66
2022/01/05 12:38:29;;;;;;;17.67;4.35;;;;;;;;;;5012574;28;20034;-66
2022/01/05 12:40:54;;;;;;;21.60;5.32;;;;;;;;;;5015016;28;20022;-68
2022/01/05 12:43:19;;;;;;;26.60;6.55;;;;;;;;;;5013040;28;20113;-66
2022/01/05 12:45:44;;;;;;;17.13;4.93;;;;;;;;;;5012999;28;20022;-67
2022/01/05 12:48:28;;;;;;;12.75;4.47;;;;;;;;;;5028178;28;20891;-66
2022/01/05 12:50:54;;;;;;;19.02;5.22;;;;;;;;;;5028573;28;20641;-66
2022/01/05 12:53:34;;;;;;;20.33;4.95;;;;;;;;;;5007044;28;20038;-67
2022/01/05 12:56:00;;;;;;;18.15;4.88;;;;;;;;;;5005027;28;20053;-66
2022/01/05 12:58:25;;;;;;;28.08;7.00;;;;;;;;;;5017794;28;20053;-66
2022/01/05 13:00:53;;;;;;;21.45;6.05;;;;;;;;;;5029639;28;20080;-66
2022/01/05 13:03:34;;;;;;;22.55;4.75;;;;;;;;;;5025922;28;20293;-67
2022/01/05 13:06:19;;;;;;;27.17;6.35;;;;;;;;;;5012462;28;20029;-67
2022/01/05 13:08:52;;;;;;;23.60;5.72;;;;;;;;;;5010959;28;20036;-65
2022/01/05 13:11:38;;;;;;;18.48;4.45;;;;;;;;;;5011598;28;20018;-67
2022/01/05 13:14:20;;;;;;;29.40;6.45;;;;;;;;;;5029206;28;20684;-65
2022/01/05 13:16:56;;;;;;;19.38;5.57;;;;;;;;;;5026720;28;20029;-66
2022/01/05 13:19:26;;;;;;;25.08;5.68;;;;;;;;;;5010723;28;20029;-66
2022/01/05 13:21:54;;;;;;;24.08;4.72;;;;;;;;;;5027931;28;20017;-65
2022/01/05 13:24:20;;;;;;;22.83;6.35;;;;;;;;;;5021910;28;20471;-66
2022/01/05 13:27:05;;;;;;;29.27;7.32;;;;;;;;;;5012519;28;20087;-65
2022/01/05 13:29:31;;;;;;;25.35;5.07;;;;;;;;;;5010178;28;20026;-65
2022/01/05 13:32:00;;;;;;;29.58;5.95;;;;;;;;;;5011587;28;20521;-65
2022/01/05 13:34:35;;;;;;;27.08;6.75;;;;;;;;;;5027917;28;20029;-65
2022/01/05 13:37:01;;;;;;;21.27;4.70;;;;;;;;;;5028981;28;20026;-66
2022/01/05 13:39:53;;;;;;;17.83;4.15;;;;;;;;;;5020417;28;20018;-65
2022/01/05 13:42:27;;;;;;;24.88;5.32;;;;;;;;;;5009206;28;20037;-66
2022/01/05 13:44:53;;;;;;;21.75;4.50;;;;;;;;;;5016145;28;20044;-65
2022/01/05 13:47:18;;;;;;;32.75;8.63;;;;;;;;;;5028859;28;20277;-65
2022/01/05 13:50:03;;;;;;;32.53;5.30;;;;;;;;;;5022142;28;20021;-66
2022/01/05 13:52:28;;;;;;;21.88;6.47;;;;;;;;;;5013670;28;20014;-66
2022/01/05 13:54:54;;;;;;;25.00;5.40;;;;;;;;;;5011865;28;20141;-65
2022/01/05 13:57:29;;;;;;;23.40;5.60;;;;;;;;;;5010620;28;20022;-65
2022/01/05 14:00:04;;;;;;;28.65;5.78;;;;;;;;;;5020190;28;20264;-65
2022/01/05 14:02:30;;;;;;;31.08;5.95;;;;;;;;;;5019055;28;20105;-65
2022/01/05 14:04:59;;;;;;;23.13;5.97;;;;;;;;;;5042028;28;20140;-65
2022/01/05 14:07:25;;;;;;;29.75;5.50;;;;;;;;;;5010457;28;20022;-66
2022/01/05 14:10:07;;;;;;;20.90;3.95;;;;;;;;;;5011780;28;20025;-66
2022/01/05 14:12:34;;;;;;;15.35;3.95;;;;;;;;;;5010692;28;20017;-66
2022/01/05 14:15:00;;;;;;;20.83;5.78;;;;;;;;;;5011076;28;20022;-66
2022/01/05 14:17:28;;;;;;;17.13;5.13;;;;;;;;;;5009140;28;20483;-65
2022/01/05 14:20:11;;;;;;;23.83;4.82;;;;;;;;;;5009536;28;20033;-66
2022/01/05 14:22:36;;;;;;;27.08;4.50;;;;;;;;;;5010464;28;20037;-65
2022/01/05 14:25:03;;;;;;;27.27;5.53;;;;;;;;;;5012053;28;20025;-65
2022/01/05 14:27:34;;;;;;;22.80;5.43;;;;;;;;;;5013856;28;20017;-65
2022/01/05 14:30:00;;;;;;;22.65;4.78;;;;;;;;;;5062051;28;20025;-66
2022/01/05 14:32:30;;;;;;;30.33;8.50;;;;;;;;;;5034523;28;20021;-66